Time;durP1;ratioP1;P1;durP2;ratioP2;P2;SDS_P1;SDS_P2;PMS_P1;PMS_P2;Temp;Humidity;BMP_temperature;BMP_pressure;BME280_temperature;BME280_humidity;BME280_pressure;Samples;Min_cycle;Max_cycle;Signal;HPM_P1;HPM_P2
2023/07/22 00:00:14;;;;;;;3.58;2.55;;;20.60;78.80;;;;;;5030913;28;20053;-30
2023/07/22 00:02:40;;;;;;;4.85;2.65;;;20.10;78.90;;;;;;5028148;28;20091;-31
2023/07/22 00:05:07;;;;;;;3.78;2.72;;;20.50;62.30;;;;;;5010948;28;20141;-31
2023/07/22 00:07:34;;;;;;;3.38;2.42;;;;;;;;;;5011086;28;20072;-31
2023/07/22 00:10:01;;;;;;;4.63;2.88;;;20.30;79.10;;;;;;5025048;28;20053;-31
2023/07/22 00:12:30;;;;;;;3.97;2.70;;;20.40;62.40;;;;;;5029288;28;20454;-34
2023/07/22 00:14:57;;;;;;;4.00;2.70;;;20.10;78.90;;;;;;5030482;28;20094;-40
2023/07/22 00:17:24;;;;;;;4.43;2.83;;;20.40;79.00;;;;;;5030894;28;20742;-40
2023/07/22 00:19:51;;;;;;;4.55;2.55;;;20.00;77.80;;;;;;5029615;28;20057;-37
2023/07/22 00:22:18;;;;;;;4.25;2.85;;;21.30;79.60;;;;;;5030394;28;20053;-40
2023/07/22 00:24:44;;;;;;;4.40;3.00;;;20.10;64.40;;;;;;5030123;28;20051;-39
2023/07/22 00:27:11;;;;;;;3.97;2.70;;;20.20;78.60;;;;;;5030461;28;20102;-40
2023/07/22 00:29:39;;;;;;;3.85;2.85;;;20.20;78.60;;;;;;5030213;28;20132;-40
2023/07/22 00:32:08;;;;;;;3.47;2.55;;;20.50;79.20;;;;;;5030215;28;20148;-40
2023/07/22 00:34:35;;;;;;;3.70;2.85;;;;;;;;;;5030102;28;20042;-37
2023/07/22 00:37:02;;;;;;;3.88;2.92;;;21.10;79.20;;;;;;5029079;28;20080;-40
2023/07/22 00:39:29;;;;;;;3.88;2.83;;;;;;;;;;5029278;28;20153;-38
2023/07/22 00:41:56;;;;;;;5.88;3.10;;;20.40;79.60;;;;;;5030214;28;20132;-40
2023/07/22 00:44:23;;;;;;;4.93;2.92;;;;;;;;;;5029669;28;20150;-38
2023/07/22 00:46:51;;;;;;;5.20;2.90;;;20.70;79.80;;;;;;5029942;28;20129;-41
2023/07/22 00:49:18;;;;;;;3.63;2.80;;;19.50;79.10;;;;;;5030097;28;20081;-40
2023/07/22 00:51:45;;;;;;;3.83;2.80;;;20.10;79.20;;;;;;5029863;28;20077;-39
2023/07/22 00:54:11;;;;;;;5.50;3.10;;;20.60;69.70;;;;;;5018595;28;20052;-37
2023/07/22 00:56:38;;;;;;;3.85;2.95;;;20.20;78.60;;;;;;5010095;28;20133;-40
2023/07/22 00:59:05;;;;;;;3.17;2.70;;;20.70;79.30;;;;;;5010167;28;20054;-39
2023/07/22 01:01:32;;;;;;;3.95;2.83;;;20.50;76.80;;;;;;5010250;28;20050;-40
2023/07/22 01:04:01;;;;;;;3.70;2.70;;;20.40;62.30;;;;;;5009704;28;20046;-36
2023/07/22 01:06:30;;;;;;;4.45;2.95;;;20.20;75.20;;;;;;5025774;28;20072;-37
2023/07/22 01:08:57;;;;;;;4.30;2.60;;;20.20;79.00;;;;;;5029587;28;20422;-39
2023/07/22 01:11:25;;;;;;;4.03;2.72;;;21.30;73.90;;;;;;5014871;28;20132;-38
2023/07/22 01:13:57;;;;;;;4.45;2.80;;;20.70;70.10;;;;;;5009566;28;20054;-38
2023/07/22 01:16:24;;;;;;;4.15;2.78;;;20.40;67.00;;;;;;5009876;28;20456;-37
2023/07/22 01:18:51;;;;;;;4.47;3.17;;;19.90;78.50;;;;;;5009789;28;20052;-41
2023/07/22 01:21:20;;;;;;;5.63;3.20;;;20.30;62.30;;;;;;5009847;28;20081;-35
2023/07/22 01:23:48;;;;;;;4.50;2.88;;;20.50;78.00;;;;;;5009540;28;20102;-37
2023/07/22 01:26:14;;;;;;;4.65;3.03;;;20.70;78.20;;;;;;5011954;28;20132;-40
2023/07/22 01:28:41;;;;;;;4.22;2.85;;;20.90;80.00;;;;;;5029223;28;20132;-40
2023/07/22 01:31:08;;;;;;;3.60;2.60;;;20.30;79.60;;;;;;5029394;28;20199;-40
2023/07/22 01:33:35;;;;;;;4.28;2.85;;;20.50;73.80;;;;;;5027448;28;20155;-38
2023/07/22 01:36:02;;;;;;;6.15;3.00;;;;;;;;;;5029038;28;20407;-39
2023/07/22 01:38:31;;;;;;;5.30;2.78;;;;;;;;;;5029109;28;20420;-37
2023/07/22 01:40:59;;;;;;;3.67;2.67;;;20.30;62.30;;;;;;5029297;28;20045;-39
2023/07/22 01:43:25;;;;;;;4.38;3.15;;;20.40;78.90;;;;;;5028271;28;20128;-39
2023/07/22 01:45:53;;;;;;;3.83;2.60;;;20.60;79.00;;;;;;5028673;28;20133;-40
2023/07/22 01:48:19;;;;;;;5.45;3.10;;;20.90;79.60;;;;;;5029006;28;20490;-39
2023/07/22 01:50:47;;;;;;;3.92;2.78;;;20.70;68.60;;;;;;5028606;28;20091;-41
2023/07/22 01:53:14;;;;;;;3.20;2.55;;;20.50;78.90;;;;;;5028409;28;20106;-41
2023/07/22 01:55:40;;;;;;;4.22;3.00;;;20.50;79.30;;;;;;5029131;28;20049;-41
2023/07/22 01:58:08;;;;;;;4.22;2.92;;;20.40;67.50;;;;;;5028760;28;20152;-39
2023/07/22 02:00:35;;;;;;;3.60;2.80;;;20.50;65.40;;;;;;5019097;28;20133;-38
2023/07/22 02:03:02;;;;;;;3.72;2.55;;;20.40;78.90;;;;;;5027605;28;20132;-40
2023/07/22 02:05:30;;;;;;;3.83;2.92;;;20.00;79.20;;;;;;5029071;28;20132;-39
2023/07/22 02:07:57;;;;;;;3.70;2.72;;;;;;;;;;5028396;28;20490;-41
2023/07/22 02:10:24;;;;;;;4.35;2.80;;;19.80;79.00;;;;;;5028869;28;20524;-40
2023/07/22 02:12:51;;;;;;;3.65;2.67;;;21.10;79.40;;;;;;5028571;28;20098;-41
2023/07/22 02:15:21;;;;;;;4.43;3.15;;;20.20;62.30;;;;;;5028739;28;20048;-37
2023/07/22 02:17:49;;;;;;;4.18;2.95;;;19.80;79.10;;;;;;5015044;28;20053;-41
2023/07/22 02:20:15;;;;;;;4.55;2.90;;;20.10;79.20;;;;;;5009076;28;20049;-41
2023/07/22 02:22:42;;;;;;;4.50;3.10;;;;;;;;;;5008795;28;20121;-35
2023/07/22 02:25:10;;;;;;;5.07;2.80;;;20.20;62.40;;;;;;5008914;28;20046;-41
2023/07/22 02:27:37;;;;;;;3.47;2.53;;;19.70;79.50;;;;;;5008779;28;20131;-40
2023/07/22 02:30:05;;;;;;;3.55;2.63;;;19.70;78.70;;;;;;5009054;28;20054;-39
2023/07/22 02:32:33;;;;;;;3.60;2.70;;;20.20;62.40;;;;;;5008862;28;20046;-36
2023/07/22 02:35:00;;;;;;;3.80;2.92;;;20.70;79.20;;;;;;5009917;28;20133;-39
2023/07/22 02:37:26;;;;;;;3.67;2.88;;;19.70;67.20;;;;;;5021600;28;20132;-37
2023/07/22 02:39:55;;;;;;;3.72;2.80;;;19.30;78.50;;;;;;5028308;28;20141;-40
2023/07/22 02:42:21;;;;;;;4.03;2.75;;;20.40;79.20;;;;;;5028244;28;20132;-40
2023/07/22 02:44:49;;;;;;;4.40;2.80;;;;;;;;;;5028223;28;20042;-36
2023/07/22 02:47:16;;;;;;;4.28;2.70;;;;;;;;;;5028447;28;20099;-41
2023/07/22 02:49:44;;;;;;;5.10;3.03;;;20.20;62.40;;;;;;5028388;28;20140;-36
2023/07/22 02:52:11;;;;;;;3.45;2.72;;;19.60;79.50;;;;;;5013575;28;20574;-39
2023/07/22 02:54:40;;;;;;;3.70;2.70;;;19.80;78.90;;;;;;5008594;28;20129;-32
2023/07/22 02:57:07;;;;;;;3.78;2.90;;;20.20;67.60;;;;;;5009641;28;20140;-34
2023/07/22 02:59:34;;;;;;;3.97;3.10;;;21.30;79.60;;;;;;5028212;28;20128;-33
2023/07/22 03:02:01;;;;;;;4.15;2.90;;;;;;;;;;5028286;28;20053;-36
2023/07/22 03:04:28;;;;;;;4.15;2.70;;;19.80;79.20;;;;;;5031435;28;20129;-32
2023/07/22 03:06:56;;;;;;;4.00;2.78;;;20.40;79.10;;;;;;5031512;28;20132;-32
2023/07/22 03:09:23;;;;;;;3.70;2.97;;;20.20;63.80;;;;;;5017870;28;20235;-33
2023/07/22 03:11:49;;;;;;;3.92;2.67;;;20.10;63.00;;;;;;5020440;28;20041;-32
2023/07/22 03:14:17;;;;;;;4.05;2.90;;;19.50;79.00;;;;;;5020848;28;20067;-31
2023/07/22 03:16:44;;;;;;;4.85;2.90;;;;;;;;;;5022131;28;20122;-34
2023/07/22 03:19:11;;;;;;;4.45;2.92;;;19.60;79.50;;;;;;5020897;28;20125;-32
2023/07/22 03:21:38;;;;;;;3.50;2.60;;;;;;;;;;5031033;28;20109;-34
2023/07/22 03:24:06;;;;;;;3.33;2.67;;;21.20;79.50;;;;;;5030971;28;20472;-32
2023/07/22 03:26:33;;;;;;;4.38;2.60;;;20.40;74.70;;;;;;5029858;28;20139;-31
2023/07/22 03:29:00;;;;;;;4.18;3.05;;;;;;;;;;5021937;28;20137;-37
2023/07/22 03:31:27;;;;;;;4.30;2.78;;;20.70;79.30;;;;;;5020780;28;20133;-34
2023/07/22 03:33:53;;;;;;;3.67;2.90;;;19.90;79.00;;;;;;5019568;28;20124;-31
2023/07/22 03:36:20;;;;;;;3.72;2.97;;;;;;;;;;5018391;28;20471;-34
2023/07/22 03:38:47;;;;;;;3.78;2.70;;;20.50;71.70;;;;;;5020252;28;20125;-33
2023/07/22 03:41:15;;;;;;;3.55;2.80;;;20.50;79.60;;;;;;5020725;28;20053;-32
2023/07/22 03:43:43;;;;;;;3.63;2.75;;;20.30;79.90;;;;;;5019121;28;20052;-32
2023/07/22 03:46:10;;;;;;;4.75;3.00;;;20.10;79.40;;;;;;5020686;28;20038;-32
2023/07/22 03:48:37;;;;;;;3.28;2.75;;;;;;;;;;5021022;28;20128;-37
2023/07/22 03:51:03;;;;;;;4.78;2.75;;;19.80;67.40;;;;;;5021366;28;20133;-33
2023/07/22 03:53:30;;;;;;;4.75;2.80;;;;;;;;;;5019847;28;20193;-33
2023/07/22 03:55:57;;;;;;;3.75;2.85;;;19.20;78.60;;;;;;5010243;28;20042;-32
2023/07/22 03:58:25;;;;;;;4.20;2.90;;;20.50;79.40;;;;;;5010495;28;20136;-32
2023/07/22 04:00:52;;;;;;;3.35;2.90;;;19.10;78.70;;;;;;5011031;28;20057;-32
2023/07/22 04:03:19;;;;;;;3.55;2.92;;;;;;;;;;5010738;28;20139;-32
2023/07/22 04:05:53;;;;;;;3.70;2.83;;;19.10;78.60;;;;;;5010563;28;20602;-32
2023/07/22 04:08:20;;;;;;;3.72;2.75;;;;;;;;;;5011144;28;20129;-32
2023/07/22 04:10:52;;;;;;;3.63;2.70;;;20.10;62.60;;;;;;5011028;28;20054;-35
2023/07/22 04:13:19;;;;;;;4.13;3.00;;;19.40;68.10;;;;;;5010694;28;20057;-32
2023/07/22 04:15:47;;;;;;;4.30;3.25;;;20.70;68.20;;;;;;5009687;28;20164;-34
2023/07/22 04:18:14;;;;;;;4.15;2.90;;;20.80;71.50;;;;;;5010753;28;20512;-32
2023/07/22 04:20:41;;;;;;;3.90;2.95;;;19.40;79.00;;;;;;5010994;28;20056;-33
2023/07/22 04:23:08;;;;;;;3.88;2.90;;;;;;;;;;5010504;28;20443;-35
2023/07/22 04:25:39;;;;;;;3.75;2.97;;;21.10;79.90;;;;;;5010609;28;20410;-31
2023/07/22 04:28:06;;;;;;;4.45;3.00;;;;;;;;;;5010618;28;20137;-35
2023/07/22 04:30:32;;;;;;;3.75;3.10;;;20.30;79.50;;;;;;5010603;28;20049;-32
2023/07/22 04:33:00;;;;;;;3.40;2.97;;;20.40;71.70;;;;;;5010343;28;20084;-31
2023/07/22 04:35:27;;;;;;;4.50;2.95;;;21.10;80.00;;;;;;5010510;28;20049;-32
2023/07/22 04:37:54;;;;;;;3.97;3.00;;;;;;;;;;5026940;28;20136;-34
2023/07/22 04:40:21;;;;;;;4.32;2.83;;;20.10;80.30;;;;;;5029872;28;20128;-33
2023/07/22 04:42:48;;;;;;;4.22;2.88;;;;;;;;;;5029980;28;20114;-32
2023/07/22 04:45:15;;;;;;;4.03;2.85;;;;;;;;;;5029993;28;20045;-32
2023/07/22 04:47:44;;;;;;;3.67;3.00;;;;;;;;;;5030070;28;20049;-32
2023/07/22 04:50:12;;;;;;;3.75;2.92;;;20.30;71.20;;;;;;5022634;28;20494;-35
2023/07/22 04:52:39;;;;;;;3.80;2.83;;;19.80;65.40;;;;;;5029692;28;20509;-31
2023/07/22 04:55:08;;;;;;;4.82;3.17;;;19.70;79.40;;;;;;5029949;28;20129;-34
2023/07/22 04:57:35;;;;;;;3.78;3.00;;;20.20;80.00;;;;;;5030023;28;20088;-33
2023/07/22 05:00:04;;;;;;;3.70;2.90;;;20.30;72.10;;;;;;5029995;28;20050;-34
2023/07/22 05:02:31;;;;;;;3.90;3.00;;;;;;;;;;5029677;28;20434;-35
2023/07/22 05:04:57;;;;;;;3.30;2.80;;;20.00;79.80;;;;;;5029566;28;20061;-31
2023/07/22 05:07:26;;;;;;;4.45;3.10;;;20.20;79.50;;;;;;5013484;28;20136;-32
2023/07/22 05:09:53;;;;;;;3.65;2.90;;;;;;;;;;5010013;28;20060;-36
2023/07/22 05:12:20;;;;;;;3.63;2.72;;;19.90;79.40;;;;;;5009662;28;20050;-35
2023/07/22 05:14:47;;;;;;;4.55;3.28;;;21.20;80.10;;;;;;5009821;28;20140;-32
2023/07/22 05:17:13;;;;;;;4.82;3.20;;;20.40;65.10;;;;;;5010036;28;20102;-33
2023/07/22 05:19:40;;;;;;;4.20;3.25;;;20.20;79.60;;;;;;5009741;28;20485;-32
2023/07/22 05:22:07;;;;;;;4.25;3.20;;;19.80;79.40;;;;;;5010349;28;20235;-32
2023/07/22 05:24:35;;;;;;;3.25;2.92;;;20.00;62.80;;;;;;5009755;28;20560;-34
2023/07/22 05:27:02;;;;;;;3.90;3.10;;;;;;;;;;5009751;28;20138;-34
2023/07/22 05:29:28;;;;;;;3.55;2.95;;;20.10;80.40;;;;;;5009640;28;20137;-32
2023/07/22 05:31:55;;;;;;;3.70;3.10;;;19.70;79.30;;;;;;5009745;28;20124;-33
2023/07/22 05:34:22;;;;;;;3.75;3.13;;;19.60;65.90;;;;;;5009561;28;20056;-36
2023/07/22 05:36:49;;;;;;;3.55;2.90;;;20.40;79.70;;;;;;5017110;28;20098;-32
2023/07/22 05:39:17;;;;;;;3.60;2.83;;;20.40;80.00;;;;;;5025234;28;20123;-30
2023/07/22 05:41:45;;;;;;;4.78;3.45;;;20.10;62.90;;;;;;5009759;28;20118;-36
2023/07/22 05:44:12;;;;;;;4.05;3.40;;;;;;;;;;5009457;28;20058;-31
2023/07/22 05:46:39;;;;;;;4.40;3.05;;;19.80;79.60;;;;;;5016305;28;20128;-31
2023/07/22 05:49:05;;;;;;;3.83;3.10;;;20.10;80.00;;;;;;5029466;28;20124;-30
2023/07/22 05:51:32;;;;;;;5.18;3.50;;;;;;;;;;5029190;28;20060;-35
2023/07/22 05:53:59;;;;;;;6.63;3.40;;;20.20;79.60;;;;;;5028787;28;20049;-31
2023/07/22 05:56:26;;;;;;;4.40;3.30;;;20.00;79.90;;;;;;5024092;28;20128;-31
2023/07/22 05:58:54;;;;;;;3.95;3.08;;;20.00;66.10;;;;;;5009168;28;20137;-33
2023/07/22 06:01:21;;;;;;;4.45;3.40;;;;;;;;;;5009408;28;20129;-33
2023/07/22 06:03:48;;;;;;;4.00;3.17;;;20.50;80.50;;;;;;5008990;28;20056;-31
2023/07/22 06:06:15;;;;;;;4.57;3.38;;;20.40;72.50;;;;;;5009027;28;20129;-31
2023/07/22 06:08:42;;;;;;;4.18;3.45;;;20.50;80.10;;;;;;5009226;28;20045;-31
2023/07/22 06:11:09;;;;;;;4.35;3.40;;;;;;;;;;5009340;28;20054;-31
2023/07/22 06:13:35;;;;;;;4.50;3.30;;;20.50;80.00;;;;;;5009841;28;20056;-31
2023/07/22 06:16:04;;;;;;;5.15;3.50;;;20.30;79.60;;;;;;5009305;28;20414;-30
2023/07/22 06:18:30;;;;;;;5.03;3.40;;;19.90;79.50;;;;;;5008997;28;20133;-31
2023/07/22 06:20:57;;;;;;;3.60;2.88;;;;;;;;;;5008767;28;20133;-34
2023/07/22 06:23:24;;;;;;;4.47;3.38;;;20.40;80.50;;;;;;5008580;28;20412;-31
2023/07/22 06:25:51;;;;;;;4.50;3.60;;;;;;;;;;5008919;28;20095;-35
2023/07/22 06:28:18;;;;;;;4.78;3.45;;;20.20;80.40;;;;;;5009021;28;20172;-31
2023/07/22 06:30:45;;;;;;;4.57;3.22;;;;;;;;;;5009942;28;20057;-38
2023/07/22 06:33:13;;;;;;;4.78;3.40;;;20.30;79.70;;;;;;5008692;28;20137;-31
2023/07/22 06:35:40;;;;;;;4.60;3.47;;;19.90;79.80;;;;;;5008472;28;20053;-31
2023/07/22 06:38:07;;;;;;;4.65;3.55;;;;;;;;;;5028658;28;20132;-31
2023/07/22 06:40:34;;;;;;;3.88;3.33;;;;;;;;;;5031835;28;20057;-33
2023/07/22 06:43:01;;;;;;;4.80;3.72;;;19.80;79.70;;;;;;5031751;28;20132;-31
2023/07/22 06:45:28;;;;;;;5.15;3.38;;;;;;;;;;5031963;28;20136;-36
2023/07/22 06:47:55;;;;;;;4.30;3.50;;;20.30;80.50;;;;;;5022133;28;20054;-31
2023/07/22 06:50:23;;;;;;;4.07;3.25;;;20.00;62.80;;;;;;5012253;28;20133;-31
2023/07/22 06:52:50;;;;;;;5.00;3.60;;;;;;;;;;5012092;28;20081;-35
2023/07/22 06:55:17;;;;;;;4.78;3.40;;;20.30;80.00;;;;;;5019928;28;20052;-31
2023/07/22 06:57:44;;;;;;;4.95;3.75;;;18.90;79.00;;;;;;5018832;28;20129;-32
2023/07/22 07:00:11;;;;;;;6.50;3.63;;;20.30;66.20;;;;;;5021484;28;20132;-33
2023/07/22 07:02:38;;;;;;;4.28;3.33;;;19.30;79.40;;;;;;5011655;28;20100;-31
2023/07/22 07:05:05;;;;;;;4.35;3.53;;;20.00;62.70;;;;;;5010859;28;20148;-34
2023/07/22 07:07:33;;;;;;;5.93;4.00;;;20.20;67.20;;;;;;5011934;28;20060;-31
2023/07/22 07:10:00;;;;;;;5.40;3.53;;;;;;;;;;5012001;28;20152;-30
2023/07/22 07:12:27;;;;;;;4.60;3.70;;;19.70;70.80;;;;;;5016777;28;20561;-32
2023/07/22 07:14:54;;;;;;;4.43;3.38;;;20.90;80.20;;;;;;5031693;28;20128;-31
2023/07/22 07:17:21;;;;;;;6.05;4.07;;;;;;;;;;5031391;28;20097;-32
2023/07/22 07:19:48;;;;;;;7.88;3.63;;;21.10;80.00;;;;;;5031564;28;20136;-32
2023/07/22 07:22:14;;;;;;;4.30;3.47;;;19.70;80.10;;;;;;5028339;28;20064;-31
2023/07/22 07:24:42;;;;;;;5.30;3.58;;;20.10;62.80;;;;;;5031315;28;20053;-36
2023/07/22 07:27:09;;;;;;;5.15;3.90;;;;;;;;;;5031368;28;20080;-36
2023/07/22 07:29:36;;;;;;;6.63;4.20;;;19.30;79.30;;;;;;5019112;28;20133;-31
2023/07/22 07:32:03;;;;;;;5.22;3.20;;;;;;;;;;5011497;28;20528;-31
2023/07/22 07:34:30;;;;;;;6.38;4.18;;;20.30;80.20;;;;;;5011300;28;20132;-31
2023/07/22 07:36:57;;;;;;;5.15;3.70;;;;;;;;;;5020503;28;20132;-31
2023/07/22 07:39:24;;;;;;;4.95;3.75;;;20.10;70.80;;;;;;5030931;28;20604;-32
2023/07/22 07:41:52;;;;;;;5.57;3.70;;;19.90;79.50;;;;;;5031261;28;20084;-31
2023/07/22 07:44:19;;;;;;;4.88;3.63;;;20.20;79.70;;;;;;5030957;28;20409;-31
2023/07/22 07:46:45;;;;;;;5.05;3.80;;;20.20;80.20;;;;;;5018406;28;20106;-31
2023/07/22 07:49:12;;;;;;;5.13;3.75;;;21.20;72.50;;;;;;5010217;28;20128;-32
2023/07/22 07:51:39;;;;;;;4.38;3.40;;;19.90;79.30;;;;;;5011356;28;20556;-32
2023/07/22 07:54:07;;;;;;;4.43;3.60;;;;;;;;;;5011059;28;20577;-35
2023/07/22 07:56:34;;;;;;;4.60;3.50;;;20.30;69.40;;;;;;5011042;28;20052;-33
2023/07/22 07:59:05;;;;;;;5.90;3.40;;;20.10;80.20;;;;;;5011133;28;20129;-32
2023/07/22 08:01:31;;;;;;;4.72;3.53;;;20.10;80.30;;;;;;5011397;28;20073;-32
2023/07/22 08:03:58;;;;;;;5.00;3.40;;;;;;;;;;5012217;28;20398;-35
2023/07/22 08:06:25;;;;;;;4.47;3.20;;;;;;;;;;5010919;28;20081;-32
2023/07/22 08:08:53;;;;;;;4.28;3.20;;;;;;;;;;5011187;28;20137;-35
2023/07/22 08:11:20;;;;;;;5.07;3.50;;;;;;;;;;5010987;28;20050;-32
2023/07/22 08:13:47;;;;;;;3.90;3.03;;;;;;;;;;5010977;28;20053;-37
2023/07/22 08:16:15;;;;;;;4.53;3.58;;;20.50;79.90;;;;;;5010956;28;20128;-32
2023/07/22 08:18:42;;;;;;;5.55;3.33;;;;;;;;;;5011840;28;20152;-32
2023/07/22 08:21:09;;;;;;;4.68;3.40;;;;;;;;;;5010829;28;20050;-35
2023/07/22 08:23:36;;;;;;;4.82;3.30;;;20.70;80.30;;;;;;5010577;28;20506;-32
2023/07/22 08:26:05;;;;;;;4.28;3.30;;;;;;;;;;5010207;28;20144;-36
2023/07/22 08:28:32;;;;;;;4.57;3.50;;;19.90;79.10;;;;;;5010979;28;20053;-31
2023/07/22 08:31:00;;;;;;;4.97;3.67;;;20.40;79.40;;;;;;5010515;28;20460;-31
2023/07/22 08:33:28;;;;;;;4.22;3.17;;;20.20;80.10;;;;;;5010002;28;20088;-32
2023/07/22 08:35:55;;;;;;;4.20;3.17;;;20.00;79.10;;;;;;5021861;28;20065;-32
2023/07/22 08:38:22;;;;;;;5.13;3.63;;;20.00;77.10;;;;;;5030124;28;20227;-32
2023/07/22 08:40:49;;;;;;;4.57;3.50;;;20.70;79.80;;;;;;5030274;28;20490;-33
2023/07/22 08:43:16;;;;;;;4.70;3.25;;;20.40;80.00;;;;;;5029411;28;20050;-31
2023/07/22 08:45:43;;;;;;;4.60;3.28;;;21.00;79.60;;;;;;5026531;28;20055;-31
2023/07/22 08:48:11;;;;;;;4.93;3.47;;;20.40;62.60;;;;;;5024850;28;20058;-35
2023/07/22 08:50:43;;;;;;;6.45;3.40;;;20.40;62.50;;;;;;5010425;28;20053;-35
2023/07/22 08:53:10;;;;;;;4.93;3.45;;;;;;;;;;5010031;28;20060;-35
2023/07/22 08:55:39;;;;;;;4.85;3.40;;;;;;;;;;5010544;28;20133;-33
2023/07/22 08:58:07;;;;;;;4.18;3.10;;;20.20;74.60;;;;;;5009991;28;20057;-32
2023/07/22 09:00:33;;;;;;;5.18;3.92;;;20.20;67.00;;;;;;5012272;28;20081;-33
2023/07/22 09:03:00;;;;;;;4.88;3.45;;;;;;;;;;5024603;28;20128;-36
2023/07/22 09:05:27;;;;;;;4.85;3.30;;;19.80;78.60;;;;;;5010183;28;20056;-34
2023/07/22 09:07:55;;;;;;;4.47;3.40;;;20.40;79.70;;;;;;5009803;28;20125;-33
2023/07/22 09:10:22;;;;;;;3.63;2.95;;;;;;;;;;5010264;28;20140;-35
2023/07/22 09:12:49;;;;;;;5.10;3.30;;;20.60;79.00;;;;;;5009979;28;20137;-32
2023/07/22 09:15:16;;;;;;;4.97;3.20;;;20.90;65.30;;;;;;5010284;28;20129;-32
2023/07/22 09:17:43;;;;;;;4.07;3.20;;;21.40;74.60;;;;;;5018839;28;20052;-34
2023/07/22 09:20:13;;;;;;;4.82;3.55;;;20.40;78.90;;;;;;5029669;28;20128;-32
2023/07/22 09:22:43;;;;;;;5.05;3.50;;;19.80;79.50;;;;;;5029485;28;20050;-32
2023/07/22 09:25:18;;;;;;;4.72;3.53;;;20.20;79.80;;;;;;5029873;28;20051;-31
2023/07/22 09:27:45;;;;;;;;;;;20.40;63.00;;;;;;5030079;28;20120;-34
2023/07/22 09:30:25;;;;;;;4.88;3.50;;;21.50;78.40;;;;;;5029646;28;19928;-32
2023/07/22 09:32:52;;;;;;;6.68;3.72;;;20.70;79.40;;;;;;5029186;28;20130;-32
2023/07/22 09:35:19;;;;;;;3.92;3.08;;;;;;;;;;5021334;28;20056;-35
2023/07/22 09:37:46;;;;;;;5.80;3.47;;;20.90;79.80;;;;;;5019160;28;20042;-34
2023/07/22 09:40:18;;;;;;;4.78;3.45;;;20.20;79.00;;;;;;5009719;28;20216;-32
2023/07/22 09:42:49;;;;;;;4.32;3.15;;;20.40;62.60;;;;;;5009384;28;20106;-35
2023/07/22 09:45:16;;;;;;;4.10;3.20;;;20.00;70.70;;;;;;5008541;28;20092;-32
2023/07/22 09:47:43;;;;;;;4.57;3.70;;;20.10;79.30;;;;;;5021441;28;20065;-32
2023/07/22 09:50:15;;;;;;;4.25;3.20;;;20.70;74.40;;;;;;5018922;28;20081;-32
2023/07/22 09:52:43;;;;;;;4.18;3.33;;;20.40;62.60;;;;;;5015674;28;20057;-36
2023/07/22 09:55:12;;;;;;;4.50;3.00;;;20.00;78.90;;;;;;5018454;28;20046;-33
2023/07/22 09:57:41;;;;;;;4.00;3.20;;;20.30;68.90;;;;;;5016722;28;20052;-33
2023/07/22 10:00:09;;;;;;;4.43;3.13;;;;;;;;;;5009168;28;20124;-35
2023/07/22 10:02:36;;;;;;;4.25;3.40;;;20.10;67.40;;;;;;5009005;28;20058;-33
2023/07/22 10:05:03;;;;;;;4.13;3.25;;;20.50;79.50;;;;;;5008588;28;20495;-39
2023/07/22 10:07:30;;;;;;;4.70;3.40;;;19.30;65.20;;;;;;5008973;28;20057;-38
2023/07/22 10:09:57;;;;;;;5.00;3.17;;;21.30;79.70;;;;;;5008921;28;20140;-41
2023/07/22 10:12:24;;;;;;;5.45;3.05;;;19.80;79.00;;;;;;5008033;28;20056;-40
2023/07/22 10:14:52;;;;;;;4.95;3.60;;;20.70;80.20;;;;;;5009032;28;20045;-41
2023/07/22 10:17:19;;;;;;;5.13;3.70;;;20.60;80.20;;;;;;5008644;28;20558;-40
2023/07/22 10:19:46;;;;;;;4.22;3.50;;;20.20;79.10;;;;;;5008758;28;20041;-39
2023/07/22 10:22:13;;;;;;;4.53;3.30;;;20.50;62.80;;;;;;5009098;28;20052;-38
2023/07/22 10:24:40;;;;;;;5.03;3.38;;;19.40;78.90;;;;;;5008700;28;20060;-40
2023/07/22 10:27:07;;;;;;;4.18;3.20;;;20.40;62.80;;;;;;5009942;28;20129;-38
2023/07/22 10:29:34;;;;;;;5.35;3.70;;;20.40;62.80;;;;;;5026571;28;20136;-39
2023/07/22 10:32:04;;;;;;;3.90;3.05;;;20.40;62.80;;;;;;5017918;28;20456;-34
2023/07/22 10:34:31;;;;;;;4.95;3.40;;;;;;;;;;5013095;28;20574;-37
2023/07/22 10:36:58;;;;;;;5.50;3.50;;;20.40;80.20;;;;;;5016009;28;20509;-41
2023/07/22 10:39:28;;;;;;;6.28;3.47;;;20.00;79.60;;;;;;5017711;28;20060;-41
2023/07/22 10:42:01;;;;;;;3.67;3.10;;;20.40;62.90;;;;;;5017681;28;20141;-37
2023/07/22 10:44:28;;;;;;;3.55;2.95;;;;;;;;;;5008639;28;20132;-41
2023/07/22 10:46:58;;;;;;;3.80;3.10;;;20.60;80.00;;;;;;5011764;28;20569;-41
2023/07/22 10:49:28;;;;;;;3.92;3.22;;;20.40;63.00;;;;;;5011284;28;20089;-40
2023/07/22 10:51:57;;;;;;;4.20;3.10;;;20.30;79.50;;;;;;5035493;28;20041;-42
2023/07/22 10:54:34;;;;;;;4.13;3.20;;;20.80;67.20;;;;;;5010315;28;20524;-39
2023/07/22 10:57:04;;;;;;;3.72;2.85;;;20.00;79.80;;;;;;5028045;28;20060;-41
2023/07/22 10:59:34;;;;;;;6.10;3.42;;;20.30;63.10;;;;;;5027782;28;20047;-40
2023/07/22 11:02:00;;;;;;;4.40;3.25;;;20.70;80.60;;;;;;5028019;28;20061;-40
2023/07/22 11:04:31;;;;;;;3.80;2.63;;;19.80;80.30;;;;;;5028277;28;20104;-39
2023/07/22 11:06:59;;;;;;;4.07;2.92;;;20.40;63.10;;;;;;5027779;28;20129;-36
2023/07/22 11:09:44;;;;;;;4.07;2.85;;;20.60;80.10;;;;;;5017386;28;20046;-41
2023/07/22 11:12:14;;;;;;;3.28;2.83;;;18.10;61.90;;;;;;5007818;28;20132;-40
2023/07/22 11:14:41;;;;;;;7.43;2.83;;;20.70;79.70;;;;;;5008113;28;20114;-41
2023/07/22 11:17:08;;;;;;;3.70;3.00;;;20.10;63.40;;;;;;5007740;28;20410;-36
2023/07/22 11:19:37;;;;;;;3.40;2.67;;;19.90;63.30;;;;;;5007823;28;20411;-41
2023/07/22 11:22:04;;;;;;;3.92;2.65;;;20.40;63.20;;;;;;5007888;28;20061;-37
2023/07/22 11:24:31;;;;;;;4.47;2.88;;;;;;;;;;5020572;28;20140;-39
2023/07/22 11:26:58;;;;;;;4.13;2.80;;;;;;;;;;5031360;28;20049;-39
2023/07/22 11:29:25;;;;;;;3.83;2.72;;;;;;;;;;5031359;28;20140;-38
2023/07/22 11:31:52;;;;;;;5.03;3.00;;;20.00;78.70;;;;;;5030764;28;20154;-38
2023/07/22 11:34:19;;;;;;;6.13;3.17;;;20.40;63.30;;;;;;5031061;28;20048;-39
2023/07/22 11:36:47;;;;;;;5.85;2.88;;;20.10;80.20;;;;;;5030813;28;20056;-42
2023/07/22 11:39:15;;;;;;;5.00;2.78;;;19.50;79.50;;;;;;5031248;28;20077;-41
2023/07/22 11:41:42;;;;;;;3.83;2.80;;;19.70;79.80;;;;;;5030953;28;20132;-41
2023/07/22 11:44:09;;;;;;;5.28;2.67;;;21.20;80.60;;;;;;5031203;28;20061;-41
2023/07/22 11:46:36;;;;;;;5.03;2.88;;;19.20;79.70;;;;;;5030987;28;20140;-42
2023/07/22 11:49:03;;;;;;;5.63;2.75;;;;;;;;;;5030589;28;20049;-36
2023/07/22 11:51:31;;;;;;;4.25;2.92;;;21.30;80.40;;;;;;5030829;28;20557;-39
2023/07/22 11:53:59;;;;;;;3.78;2.90;;;20.10;64.40;;;;;;5030984;28;20053;-39
2023/07/22 11:56:27;;;;;;;3.55;2.65;;;;;;;;;;5030897;28;20045;-37
2023/07/22 11:58:54;;;;;;;4.32;2.75;;;;;;;;;;5031188;28;20118;-38
2023/07/22 12:01:21;;;;;;;4.65;2.70;;;20.60;80.30;;;;;;5029677;28;20451;-40
2023/07/22 12:03:48;;;;;;;4.18;2.70;;;;;;;;;;5030843;28;20060;-38
2023/07/22 12:06:15;;;;;;;4.00;2.78;;;20.30;81.00;;;;;;5028812;28;20137;-41
2023/07/22 12:08:45;;;;;;;3.97;2.72;;;20.40;64.50;;;;;;5030876;28;20068;-39
2023/07/22 12:11:20;;;;;;;5.03;2.58;;;19.10;79.50;;;;;;5031039;28;20049;-40
2023/07/22 12:13:50;;;;;;;4.35;2.67;;;;;;;;;;5030761;28;20056;-42
2023/07/22 12:16:22;;;;;;;5.18;2.60;;;20.40;80.30;;;;;;5030707;28;20041;-41
2023/07/22 12:18:49;;;;;;;3.55;2.45;;;19.70;79.90;;;;;;5030745;28;20056;-40
2023/07/22 12:21:15;;;;;;;3.42;2.33;;;20.00;80.10;;;;;;5026836;28;20137;-41
2023/07/22 12:23:42;;;;;;;3.03;2.30;;;20.40;64.60;;;;;;5010725;28;20054;-40
2023/07/22 12:26:09;;;;;;;4.70;2.75;;;19.30;79.80;;;;;;5010837;28;20061;-40
2023/07/22 12:28:37;;;;;;;2.72;2.30;;;20.30;81.20;;;;;;5010713;28;20050;-41
2023/07/22 12:31:04;;;;;;;3.33;2.38;;;20.50;80.40;;;;;;5010907;28;20047;-41
2023/07/22 12:33:31;;;;;;;3.13;2.35;;;20.60;66.70;;;;;;5010556;28;20132;-35
2023/07/22 12:35:58;;;;;;;3.72;2.53;;;;;;;;;;5010820;28;20095;-34
2023/07/22 12:38:25;;;;;;;4.43;2.53;;;20.50;71.60;;;;;;5023600;28;20093;-32
2023/07/22 12:40:51;;;;;;;4.63;2.50;;;20.70;80.40;;;;;;5010711;28;20136;-32
2023/07/22 12:43:18;;;;;;;3.40;2.40;;;20.00;80.00;;;;;;5010485;28;20156;-32
2023/07/22 12:45:46;;;;;;;3.50;2.53;;;20.20;63.60;;;;;;5010724;28;20149;-34
2023/07/22 12:48:13;;;;;;;3.85;2.58;;;;;;;;;;5025405;28;20128;-34
2023/07/22 12:50:40;;;;;;;3.53;2.30;;;20.20;81.10;;;;;;5030056;28;20059;-32
2023/07/22 12:53:08;;;;;;;3.33;2.33;;;20.90;80.60;;;;;;5029756;28;20055;-32
2023/07/22 12:55:35;;;;;;;2.65;2.20;;;;;;;;;;5020677;28;20141;-35
2023/07/22 12:58:02;;;;;;;2.63;2.10;;;20.10;71.50;;;;;;5010350;28;20129;-32
2023/07/22 13:00:29;;;;;;;3.53;2.40;;;20.80;80.60;;;;;;5010163;28;20103;-33
2023/07/22 13:02:57;;;;;;;2.78;2.17;;;20.40;63.80;;;;;;5010127;28;20133;-39
2023/07/22 13:05:24;;;;;;;3.45;2.20;;;20.70;69.10;;;;;;5010374;28;20054;-39
2023/07/22 13:07:51;;;;;;;2.70;2.15;;;20.50;80.50;;;;;;5010347;28;20453;-41
2023/07/22 13:10:20;;;;;;;2.97;2.60;;;20.10;70.40;;;;;;5010190;28;20054;-38